sensor_id;sensor_type;location;lat;lon;timestamp;pressure;altitude;pressure_sealevel;temperature;humidity
45247;BME280;31529;51.158;7.354;2023-05-17T00:00:00;98579.06;;;9.76;87.56
45247;BME280;31529;51.158;7.354;2023-05-17T00:00:31;98584.41;;;9.76;87.19
45247;BME280;31529;51.158;7.354;2023-05-17T00:01:02;98578.28;;;9.76;87.61
45247;BME280;31529;51.158;7.354;2023-05-17T00:01:33;98588.94;;;9.76;88.00
45247;BME280;31529;51.158;7.354;2023-05-17T00:02:04;98576.66;;;9.75;87.50
45247;BME280;31529;51.158;7.354;2023-05-17T00:02:36;98584.94;;;9.73;87.25
45247;BME280;31529;51.158;7.354;2023-05-17T00:03:07;98588.41;;;9.74;87.57
45247;BME280;31529;51.158;7.354;2023-05-17T00:03:38;98586.00;;;9.72;88.27
45247;BME280;31529;51.158;7.354;2023-05-17T00:04:09;98582.53;;;9.72;87.56
45247;BME280;31529;51.158;7.354;2023-05-17T00:04:40;98581.75;;;9.71;87.46
45247;BME280;31529;51.158;7.354;2023-05-17T00:05:11;98591.56;;;9.71;87.55
45247;BME280;31529;51.158;7.354;2023-05-17T00:05:42;98582.00;;;9.70;88.35
45247;BME280;31529;51.158;7.354;2023-05-17T00:06:14;98583.03;;;9.69;87.66
45247;BME280;31529;51.158;7.354;2023-05-17T00:06:44;98578.78;;;9.68;87.99
45247;BME280;31529;51.158;7.354;2023-05-17T00:07:16;98587.59;;;9.68;88.61
45247;BME280;31529;51.158;7.354;2023-05-17T00:07:47;98580.63;;;9.67;88.03
45247;BME280;31529;51.158;7.354;2023-05-17T00:08:19;98586.25;;;9.66;88.16
45247;BME280;31529;51.158;7.354;2023-05-17T00:08:50;98586.50;;;9.64;88.67
45247;BME280;31529;51.158;7.354;2023-05-17T00:09:21;98581.19;;;9.64;88.19
45247;BME280;31529;51.158;7.354;2023-05-17T00:09:52;98586.50;;;9.64;88.19
45247;BME280;31529;51.158;7.354;2023-05-17T00:10:23;98585.72;;;9.64;88.82
45247;BME280;31529;51.158;7.354;2023-05-17T00:10:54;98590.22;;;9.63;88.20
45247;BME280;31529;51.158;7.354;2023-05-17T00:11:26;98582.47;;;9.62;88.55
45247;BME280;31529;51.158;7.354;2023-05-17T00:11:57;98584.88;;;9.63;88.95
45247;BME280;31529;51.158;7.354;2023-05-17T00:12:28;98585.16;;;9.62;88.53
45247;BME280;31529;51.158;7.354;2023-05-17T00:12:59;98589.44;;;9.63;88.89
45247;BME280;31529;51.158;7.354;2023-05-17T00:13:30;98584.09;;;9.63;88.15
45247;BME280;31529;51.158;7.354;2023-05-17T00:14:01;98588.63;;;9.62;88.73
45247;BME280;31529;51.158;7.354;2023-05-17T00:14:32;98584.09;;;9.63;88.72
45247;BME280;31529;51.158;7.354;2023-05-17T00:15:03;98583.31;;;9.62;88.78
45247;BME280;31529;51.158;7.354;2023-05-17T00:15:35;98585.97;;;9.62;88.90
45247;BME280;31529;51.158;7.354;2023-05-17T00:16:06;98585.16;;;9.62;88.10
45247;BME280;31529;51.158;7.354;2023-05-17T00:16:38;98587.81;;;9.62;88.63
45247;BME280;31529;51.158;7.354;2023-05-17T00:17:09;98586.22;;;9.61;87.73
45247;BME280;31529;51.158;7.354;2023-05-17T00:17:40;98591.56;;;9.61;88.38
45247;BME280;31529;51.158;7.354;2023-05-17T00:18:11;98583.81;;;9.59;87.99
45247;BME280;31529;51.158;7.354;2023-05-17T00:18:42;98512.00;;;9.11;88.54
45247;BME280;31529;51.158;7.354;2023-05-17T00:19:13;98579.28;;;9.60;88.65
45247;BME280;31529;51.158;7.354;2023-05-17T00:19:45;98578.47;;;9.59;88.91
45247;BME280;31529;51.158;7.354;2023-05-17T00:20:16;98592.88;;;9.58;88.32
45247;BME280;31529;51.158;7.354;2023-05-17T00:20:47;98545.09;;;9.31;88.27
45247;BME280;31529;51.158;7.354;2023-05-17T00:21:18;98588.59;;;9.57;87.83
45247;BME280;31529;51.158;7.354;2023-05-17T00:21:49;98587.81;;;9.56;88.01
45247;BME280;31529;51.158;7.354;2023-05-17T00:22:20;98585.41;;;9.55;88.27
45247;BME280;31529;51.158;7.354;2023-05-17T00:22:51;98586.44;;;9.54;88.00
45247;BME280;31529;51.158;7.354;2023-05-17T00:23:22;98593.66;;;9.53;88.55
45247;BME280;31529;51.158;7.354;2023-05-17T00:23:53;98587.53;;;9.53;88.40
45247;BME280;31529;51.158;7.354;2023-05-17T00:24:27;98584.88;;;9.53;88.94
45247;BME280;31529;51.158;7.354;2023-05-17T00:24:59;98585.91;;;9.52;88.50
45247;BME280;31529;51.158;7.354;2023-05-17T00:25:30;98587.00;;;9.51;88.81
45247;BME280;31529;51.158;7.354;2023-05-17T00:26:01;98590.19;;;9.53;88.73
45247;BME280;31529;51.158;7.354;2023-05-17T00:26:32;98582.47;;;9.51;89.21
45247;BME280;31529;51.158;7.354;2023-05-17T00:27:03;98582.72;;;9.50;89.48
45247;BME280;31529;51.158;7.354;2023-05-17T00:27:35;98582.72;;;9.50;89.63
45247;BME280;31529;51.158;7.354;2023-05-17T00:28:06;98580.03;;;9.50;89.07
45247;BME280;31529;51.158;7.354;2023-05-17T00:28:37;98582.72;;;9.50;89.49
45247;BME280;31529;51.158;7.354;2023-05-17T00:29:08;98580.03;;;9.50;89.47
45247;BME280;31529;51.158;7.354;2023-05-17T00:29:39;98582.97;;;9.48;88.97
45247;BME280;31529;51.158;7.354;2023-05-17T00:30:10;98578.72;;;9.47;89.85
45247;BME280;31529;51.158;7.354;2023-05-17T00:30:41;98588.56;;;9.47;89.77
45247;BME280;31529;51.158;7.354;2023-05-17T00:31:12;98581.63;;;9.46;89.16
45247;BME280;31529;51.158;7.354;2023-05-17T00:31:43;98584.31;;;9.46;89.48
45247;BME280;31529;51.158;7.354;2023-05-17T00:32:15;98581.88;;;9.44;89.47
45247;BME280;31529;51.158;7.354;2023-05-17T00:32:46;98580.31;;;9.43;89.59
45247;BME280;31529;51.158;7.354;2023-05-17T00:33:18;98582.97;;;9.43;89.45
45247;BME280;31529;51.158;7.354;2023-05-17T00:33:49;98583.22;;;9.42;89.99
45247;BME280;31529;51.158;7.354;2023-05-17T00:34:20;98585.09;;;9.41;89.71
45247;BME280;31529;51.158;7.354;2023-05-17T00:34:51;98584.00;;;9.42;89.61
45247;BME280;31529;51.158;7.354;2023-05-17T00:35:22;98586.94;;;9.41;90.32
45247;BME280;31529;51.158;7.354;2023-05-17T00:35:53;98588.56;;;9.42;90.78
45247;BME280;31529;51.158;7.354;2023-05-17T00:36:24;98589.59;;;9.41;90.49
45247;BME280;31529;51.158;7.354;2023-05-17T00:36:55;98497.75;;;8.85;90.19
45247;BME280;31529;51.158;7.354;2023-05-17T00:37:26;98583.22;;;9.42;90.35
45247;BME280;31529;51.158;7.354;2023-05-17T00:37:58;98583.22;;;9.42;90.71
45247;BME280;31529;51.158;7.354;2023-05-17T00:38:29;98588.56;;;9.42;90.79
45247;BME280;31529;51.158;7.354;2023-05-17T00:39:00;98581.34;;;9.42;91.16
45247;BME280;31529;51.158;7.354;2023-05-17T00:39:31;98585.88;;;9.42;90.61
45247;BME280;31529;51.158;7.354;2023-05-17T00:40:03;98590.13;;;9.43;91.05
45247;BME280;31529;51.158;7.354;2023-05-17T00:40:37;98584.81;;;9.43;90.77
45247;BME280;31529;51.158;7.354;2023-05-17T00:41:08;98586.69;;;9.42;90.79
45247;BME280;31529;51.158;7.354;2023-05-17T00:41:40;98584.00;;;9.42;91.34
45247;BME280;31529;51.158;7.354;2023-05-17T00:42:11;98584.00;;;9.42;90.54
45247;BME280;31529;51.158;7.354;2023-05-17T00:42:42;98507.66;;;8.95;91.06
45247;BME280;31529;51.158;7.354;2023-05-17T00:43:14;98588.56;;;9.42;91.20
45247;BME280;31529;51.158;7.354;2023-05-17T00:43:45;98584.00;;;9.42;91.37
45247;BME280;31529;51.158;7.354;2023-05-17T00:44:16;98581.34;;;9.42;91.58
45247;BME280;31529;51.158;7.354;2023-05-17T00:44:47;98580.56;;;9.42;91.03
45247;BME280;31529;51.158;7.354;2023-05-17T00:45:18;98582.16;;;9.43;90.93
45247;BME280;31529;51.158;7.354;2023-05-17T00:45:49;98582.16;;;9.43;90.82
45247;BME280;31529;51.158;7.354;2023-05-17T00:46:21;98584.81;;;9.43;91.08
45247;BME280;31529;51.158;7.354;2023-05-17T00:46:52;98582.16;;;9.43;90.61
45247;BME280;31529;51.158;7.354;2023-05-17T00:47:23;98582.16;;;9.43;90.86
45247;BME280;31529;51.158;7.354;2023-05-17T00:47:54;98585.88;;;9.42;90.74
45247;BME280;31529;51.158;7.354;2023-05-17T00:48:26;98577.91;;;9.42;90.96
45247;BME280;31529;51.158;7.354;2023-05-17T00:48:59;98584.25;;;9.41;90.76
45247;BME280;31529;51.158;7.354;2023-05-17T00:49:30;98583.72;;;9.38;90.93
45247;BME280;31529;51.158;7.354;2023-05-17T00:50:01;98580.28;;;9.38;90.38
45247;BME280;31529;51.158;7.354;2023-05-17T00:50:32;98582.16;;;9.37;90.38
45247;BME280;31529;51.158;7.354;2023-05-17T00:51:04;98582.16;;;9.37;90.37
45247;BME280;31529;51.158;7.354;2023-05-17T00:51:36;98584.81;;;9.37;91.20
45247;BME280;31529;51.158;7.354;2023-05-17T00:52:09;98587.47;;;9.37;90.32
45247;BME280;31529;51.158;7.354;2023-05-17T00:52:40;98584.25;;;9.35;90.26
45247;BME280;31529;51.158;7.354;2023-05-17T00:53:11;98583.44;;;9.35;90.63
45247;BME280;31529;51.158;7.354;2023-05-17T00:53:45;98588.78;;;9.35;91.09
45247;BME280;31529;51.158;7.354;2023-05-17T00:54:17;98586.38;;;9.33;91.06
45247;BME280;31529;51.158;7.354;2023-05-17T00:54:49;98585.56;;;9.33;90.91
45247;BME280;31529;51.158;7.354;2023-05-17T00:55:21;98591.97;;;9.32;90.27
45247;BME280;31529;51.158;7.354;2023-05-17T00:55:52;98593.81;;;9.31;90.96
45247;BME280;31529;51.158;7.354;2023-05-17T00:56:25;98589.81;;;9.29;90.24
45247;BME280;31529;51.158;7.354;2023-05-17T00:56:57;98589.28;;;9.27;90.95
45247;BME280;31529;51.158;7.354;2023-05-17T00:57:30;98591.13;;;9.26;90.39
45247;BME280;31529;51.158;7.354;2023-05-17T00:58:01;98587.94;;;9.24;91.10
45247;BME280;31529;51.158;7.354;2023-05-17T00:58:34;98593.50;;;9.23;90.60
45247;BME280;31529;51.158;7.354;2023-05-17T00:59:06;98585.78;;;9.21;90.71
45247;BME280;31529;51.158;7.354;2023-05-17T00:59:38;98580.72;;;9.19;90.80
45247;BME280;31529;51.158;7.354;2023-05-17T01:00:09;98588.94;;;9.18;90.98
45247;BME280;31529;51.158;7.354;2023-05-17T01:00:41;98587.38;;;9.17;91.58
45247;BME280;31529;51.158;7.354;2023-05-17T01:01:12;98589.47;;;9.15;91.20
45247;BME280;31529;51.158;7.354;2023-05-17T01:01:44;98586.28;;;9.13;91.89
45247;BME280;31529;51.158;7.354;2023-05-17T01:02:15;98589.19;;;9.11;91.77
45247;BME280;31529;51.158;7.354;2023-05-17T01:02:46;98581.47;;;9.10;91.44
45247;BME280;31529;51.158;7.354;2023-05-17T01:03:18;98586.78;;;9.10;91.93
45247;BME280;31529;51.158;7.354;2023-05-17T01:03:49;98586.25;;;9.08;91.56
45247;BME280;31529;51.158;7.354;2023-05-17T01:04:21;98585.44;;;9.07;92.33
45247;BME280;31529;51.158;7.354;2023-05-17T01:04:52;98588.13;;;9.07;91.72
45247;BME280;31529;51.158;7.354;2023-05-17T01:05:23;98586.50;;;9.06;92.33
45247;BME280;31529;51.158;7.354;2023-05-17T01:05:54;98588.38;;;9.06;92.38
45247;BME280;31529;51.158;7.354;2023-05-17T01:06:25;98590.22;;;9.05;92.07
45247;BME280;31529;51.158;7.354;2023-05-17T01:06:56;98587.56;;;9.05;91.81
45247;BME280;31529;51.158;7.354;2023-05-17T01:07:28;98588.63;;;9.04;91.67
45247;BME280;31529;51.158;7.354;2023-05-17T01:07:59;98583.28;;;9.04;91.99
45247;BME280;31529;51.158;7.354;2023-05-17T01:08:30;98588.63;;;9.04;91.82
45247;BME280;31529;51.158;7.354;2023-05-17T01:09:03;98586.22;;;9.03;92.42
45247;BME280;31529;51.158;7.354;2023-05-17T01:09:35;98588.88;;;9.03;92.29
45247;BME280;31529;51.158;7.354;2023-05-17T01:10:07;98587.28;;;9.02;91.91
45247;BME280;31529;51.158;7.354;2023-05-17T01:13:02;98594.72;;;8.99;92.33
45247;BME280;31529;51.158;7.354;2023-05-17T01:14:46;98601.09;;;8.98;92.76
45247;BME280;31529;51.158;7.354;2023-05-17T01:15:30;98601.88;;;8.99;93.19
45247;BME280;31529;51.158;7.354;2023-05-17T01:16:14;98598.44;;;8.98;93.11
45247;BME280;31529;51.158;7.354;2023-05-17T01:16:50;98594.97;;;8.98;93.46
45247;BME280;31529;51.158;7.354;2023-05-17T01:17:39;98595.78;;;8.98;93.09
45247;BME280;31529;51.158;7.354;2023-05-17T01:20:36;98590.97;;;8.95;93.81
45247;BME280;31529;51.158;7.354;2023-05-17T01:21:16;98544.47;;;8.66;93.42
45247;BME280;31529;51.158;7.354;2023-05-17T01:24:26;98600.50;;;8.91;94.04
45247;BME280;31529;51.158;7.354;2023-05-17T01:25:04;98595.19;;;8.91;94.06
45247;BME280;31529;51.158;7.354;2023-05-17T01:26:59;98598.38;;;8.88;94.24
45247;BME280;31529;51.158;7.354;2023-05-17T01:27:32;98598.38;;;8.88;94.59
45247;BME280;31529;51.158;7.354;2023-05-17T01:28:06;98594.88;;;8.88;94.76
45247;BME280;31529;51.158;7.354;2023-05-17T01:28:40;98599.41;;;8.87;94.99
45247;BME280;31529;51.158;7.354;2023-05-17T01:29:15;98593.56;;;8.85;94.68
45247;BME280;31529;51.158;7.354;2023-05-17T01:29:48;98597.28;;;8.84;94.85
45247;BME280;31529;51.158;7.354;2023-05-17T01:30:20;98593.00;;;8.83;94.33
45247;BME280;31529;51.158;7.354;2023-05-17T01:30:54;98598.34;;;8.83;94.94
45247;BME280;31529;51.158;7.354;2023-05-17T01:31:27;98598.34;;;8.83;95.35
45247;BME280;31529;51.158;7.354;2023-05-17T01:31:58;98592.22;;;8.83;95.47
45247;BME280;31529;51.158;7.354;2023-05-17T01:32:32;98592.22;;;8.83;95.24
45247;BME280;31529;51.158;7.354;2023-05-17T01:33:04;98596.75;;;8.82;94.81
45247;BME280;31529;51.158;7.354;2023-05-17T01:33:37;98599.41;;;8.82;94.65
45247;BME280;31529;51.158;7.354;2023-05-17T01:34:09;98595.13;;;8.81;94.58
45247;BME280;31529;51.158;7.354;2023-05-17T01:34:40;98589.81;;;8.81;94.62
45247;BME280;31529;51.158;7.354;2023-05-17T01:35:11;98600.44;;;8.81;95.50
45247;BME280;31529;51.158;7.354;2023-05-17T01:35:42;98599.66;;;8.81;95.24
45247;BME280;31529;51.158;7.354;2023-05-17T01:36:13;98604.16;;;8.80;95.30
45247;BME280;31529;51.158;7.354;2023-05-17T01:36:45;98597.25;;;8.79;95.61
45247;BME280;31529;51.158;7.354;2023-05-17T01:37:16;98594.59;;;8.79;95.53
45247;BME280;31529;51.158;7.354;2023-05-17T01:37:47;98591.91;;;8.79;94.97
45247;BME280;31529;51.158;7.354;2023-05-17T01:38:18;98589.25;;;8.79;94.72
45247;BME280;31529;51.158;7.354;2023-05-17T01:38:49;98592.97;;;8.78;95.37
45247;BME280;31529;51.158;7.354;2023-05-17T01:39:20;98600.16;;;8.77;95.00
45247;BME280;31529;51.158;7.354;2023-05-17T01:39:52;98599.38;;;8.77;94.85
45247;BME280;31529;51.158;7.354;2023-05-17T01:40:23;98598.56;;;8.76;95.23
45247;BME280;31529;51.158;7.354;2023-05-17T01:40:55;98599.63;;;8.75;94.86
45247;BME280;31529;51.158;7.354;2023-05-17T01:41:40;98598.00;;;8.74;94.46
45247;BME280;31529;51.158;7.354;2023-05-17T01:42:17;98595.34;;;8.74;94.58
45247;BME280;31529;51.158;7.354;2023-05-17T01:42:56;98600.66;;;8.74;94.85
45247;BME280;31529;51.158;7.354;2023-05-17T01:45:56;98598.53;;;8.71;94.57
45247;BME280;31529;51.158;7.354;2023-05-17T01:47:14;98605.72;;;8.71;95.30
45247;BME280;31529;51.158;7.354;2023-05-17T01:49:46;98611.03;;;8.71;95.29
45247;BME280;31529;51.158;7.354;2023-05-17T01:50:23;98607.53;;;8.70;95.77
45247;BME280;31529;51.158;7.354;2023-05-17T01:50:57;98617.16;;;8.71;96.29
45247;BME280;31529;51.158;7.354;2023-05-17T01:51:30;98613.69;;;8.71;95.81
45247;BME280;31529;51.158;7.354;2023-05-17T01:52:07;98613.69;;;8.71;96.76
45247;BME280;31529;51.158;7.354;2023-05-17T01:52:44;98617.94;;;8.72;96.24
45247;BME280;31529;51.158;7.354;2023-05-17T01:53:32;98615.28;;;8.72;96.00
45247;BME280;31529;51.158;7.354;2023-05-17T01:54:09;98617.94;;;8.72;96.30
45247;BME280;31529;51.158;7.354;2023-05-17T01:54:44;98613.41;;;8.72;96.65
45247;BME280;31529;51.158;7.354;2023-05-17T01:55:36;98608.09;;;8.72;96.18
45247;BME280;31529;51.158;7.354;2023-05-17T01:56:14;98609.97;;;8.72;96.75
45247;BME280;31529;51.158;7.354;2023-05-17T01:56:58;98612.63;;;8.72;96.25
45247;BME280;31529;51.158;7.354;2023-05-17T01:57:34;98619.00;;;8.71;96.32
45247;BME280;31529;51.158;7.354;2023-05-17T01:58:06;98611.81;;;8.71;96.76
45247;BME280;31529;51.158;7.354;2023-05-17T01:58:46;98613.69;;;8.71;96.46
45247;BME280;31529;51.158;7.354;2023-05-17T01:59:19;98625.91;;;8.72;96.82
45247;BME280;31529;51.158;7.354;2023-05-17T01:59:52;98617.16;;;8.71;96.89
45247;BME280;31529;51.158;7.354;2023-05-17T02:00:27;98620.84;;;8.70;96.36
45247;BME280;31529;51.158;7.354;2023-05-17T02:00:59;98616.59;;;8.69;96.23
45247;BME280;31529;51.158;7.354;2023-05-17T02:01:32;98615.78;;;8.69;97.08
45247;BME280;31529;51.158;7.354;2023-05-17T02:02:04;98620.06;;;8.70;96.47
45247;BME280;31529;51.158;7.354;2023-05-17T02:02:38;98622.72;;;8.70;96.48
45247;BME280;31529;51.158;7.354;2023-05-17T02:03:11;98621.09;;;8.69;96.17
45247;BME280;31529;51.158;7.354;2023-05-17T02:03:47;98622.97;;;8.68;96.42
45247;BME280;31529;51.158;7.354;2023-05-17T02:04:19;98617.41;;;8.70;96.35
45247;BME280;31529;51.158;7.354;2023-05-17T02:04:50;98620.06;;;8.70;96.79
45247;BME280;31529;51.158;7.354;2023-05-17T02:05:21;98619.25;;;8.69;97.29
45247;BME280;31529;51.158;7.354;2023-05-17T02:05:52;98624.59;;;8.69;97.19
45247;BME280;31529;51.158;7.354;2023-05-17T02:06:23;98622.72;;;8.70;96.82
45247;BME280;31529;51.158;7.354;2023-05-17T02:06:55;98617.66;;;8.68;96.36
45247;BME280;31529;51.158;7.354;2023-05-17T02:07:26;98624.03;;;8.67;96.95
45247;BME280;31529;51.158;7.354;2023-05-17T02:07:57;98615.22;;;8.67;96.22
45247;BME280;31529;51.158;7.354;2023-05-17T02:08:28;98629.59;;;8.66;96.49
45247;BME280;31529;51.158;7.354;2023-05-17T02:08:59;98626.41;;;8.64;96.25
45247;BME280;31529;51.158;7.354;2023-05-17T02:09:32;98624.78;;;8.63;96.73
45247;BME280;31529;51.158;7.354;2023-05-17T02:10:03;98626.09;;;8.60;96.95
45247;BME280;31529;51.158;7.354;2023-05-17T02:10:35;98623.44;;;8.60;97.05
45247;BME280;31529;51.158;7.354;2023-05-17T02:11:06;98626.09;;;8.60;96.45
45247;BME280;31529;51.158;7.354;2023-05-17T02:11:37;98624.75;;;8.57;96.56
45247;BME280;31529;51.158;7.354;2023-05-17T02:12:08;98625.81;;;8.56;96.75
45247;BME280;31529;51.158;7.354;2023-05-17T02:12:39;98625.00;;;8.56;96.73
45247;BME280;31529;51.158;7.354;2023-05-17T02:13:11;98623.38;;;8.55;96.52
45247;BME280;31529;51.158;7.354;2023-05-17T02:13:42;98622.59;;;8.54;96.55
45247;BME280;31529;51.158;7.354;2023-05-17T02:14:14;98626.28;;;8.53;96.27
45247;BME280;31529;51.158;7.354;2023-05-17T02:14:45;98628.97;;;8.53;96.50
45247;BME280;31529;51.158;7.354;2023-05-17T02:15:16;98624.72;;;8.52;97.19
45247;BME280;31529;51.158;7.354;2023-05-17T02:15:47;98628.41;;;8.51;97.12
45247;BME280;31529;51.158;7.354;2023-05-17T02:16:18;98630.03;;;8.52;97.29
45247;BME280;31529;51.158;7.354;2023-05-17T02:16:49;98632.69;;;8.52;97.09
45247;BME280;31529;51.158;7.354;2023-05-17T02:17:20;98623.91;;;8.52;97.65
45247;BME280;31529;51.158;7.354;2023-05-17T02:17:51;98627.38;;;8.52;97.89
45247;BME280;31529;51.158;7.354;2023-05-17T02:18:23;98626.56;;;8.52;97.48
45247;BME280;31529;51.158;7.354;2023-05-17T02:18:54;98628.16;;;8.53;98.14
45247;BME280;31529;51.158;7.354;2023-05-17T02:19:25;98626.56;;;8.52;97.94
45247;BME280;31529;51.158;7.354;2023-05-17T02:19:56;98625.75;;;8.51;98.07
45247;BME280;31529;51.158;7.354;2023-05-17T02:20:27;98627.38;;;8.52;97.27
45247;BME280;31529;51.158;7.354;2023-05-17T02:20:58;98623.34;;;8.50;97.54
45247;BME280;31529;51.158;7.354;2023-05-17T02:21:30;98623.34;;;8.50;97.51
45247;BME280;31529;51.158;7.354;2023-05-17T02:22:01;98622.53;;;8.49;97.67
45247;BME280;31529;51.158;7.354;2023-05-17T02:22:32;98626.28;;;8.48;97.20
45247;BME280;31529;51.158;7.354;2023-05-17T02:23:03;98628.94;;;8.48;97.41
45247;BME280;31529;51.158;7.354;2023-05-17T02:23:34;98627.31;;;8.47;97.98
45247;BME280;31529;51.158;7.354;2023-05-17T02:24:05;98620.41;;;8.46;97.30
45247;BME280;31529;51.158;7.354;2023-05-17T02:24:36;98623.06;;;8.46;97.96
45247;BME280;31529;51.158;7.354;2023-05-17T02:25:07;98624.09;;;8.45;97.82
45247;BME280;31529;51.158;7.354;2023-05-17T02:25:39;98620.91;;;8.43;97.50
45247;BME280;31529;51.158;7.354;2023-05-17T02:26:10;98619.28;;;8.42;97.79
45247;BME280;31529;51.158;7.354;2023-05-17T02:26:41;98627.25;;;8.42;97.80
45247;BME280;31529;51.158;7.354;2023-05-17T02:27:12;98624.84;;;8.40;97.30
45247;BME280;31529;51.158;7.354;2023-05-17T02:27:43;98619.78;;;8.39;97.35
45247;BME280;31529;51.158;7.354;2023-05-17T02:28:14;98626.13;;;8.38;98.18
45247;BME280;31529;51.158;7.354;2023-05-17T02:28:46;98628.78;;;8.38;97.95
45247;BME280;31529;51.158;7.354;2023-05-17T02:29:17;98628.78;;;8.38;98.16
45247;BME280;31529;51.158;7.354;2023-05-17T02:29:48;98627.22;;;8.37;97.81
45247;BME280;31529;51.158;7.354;2023-05-17T02:30:19;98633.56;;;8.36;97.92
45247;BME280;31529;51.158;7.354;2023-05-17T02:30:52;98629.31;;;8.35;98.23
45247;BME280;31529;51.158;7.354;2023-05-17T02:31:23;98624.78;;;8.35;98.32
45247;BME280;31529;51.158;7.354;2023-05-17T02:31:57;98622.13;;;8.35;99.03
45247;BME280;31529;51.158;7.354;2023-05-17T02:32:28;98622.13;;;8.35;98.27
45247;BME280;31529;51.158;7.354;2023-05-17T02:32:59;98625.59;;;8.36;98.34
45247;BME280;31529;51.158;7.354;2023-05-17T02:33:30;98630.09;;;8.35;98.23
45247;BME280;31529;51.158;7.354;2023-05-17T02:34:01;98623.16;;;8.34;98.81
45247;BME280;31529;51.158;7.354;2023-05-17T02:34:32;98624.78;;;8.35;98.76
45247;BME280;31529;51.158;7.354;2023-05-17T02:35:04;98625.59;;;8.36;99.35
45247;BME280;31529;51.158;7.354;2023-05-17T02:35:35;98623.72;;;8.36;98.59
45247;BME280;31529;51.158;7.354;2023-05-17T02:36:06;98627.44;;;8.35;99.35
45247;BME280;31529;51.158;7.354;2023-05-17T02:36:37;98627.22;;;8.37;99.47
45247;BME280;31529;51.158;7.354;2023-05-17T02:37:10;98625.59;;;8.36;98.92
45247;BME280;31529;51.158;7.354;2023-05-17T02:37:41;98623.72;;;8.36;98.86
45247;BME280;31529;51.158;7.354;2023-05-17T02:38:12;98627.22;;;8.37;98.92
45247;BME280;31529;51.158;7.354;2023-05-17T02:38:43;98621.88;;;8.37;98.52
45247;BME280;31529;51.158;7.354;2023-05-17T02:39:14;98628.25;;;8.36;98.76
45247;BME280;31529;51.158;7.354;2023-05-17T02:39:45;98630.91;;;8.36;98.30
45247;BME280;31529;51.158;7.354;2023-05-17T02:40:17;98629.88;;;8.37;98.97
45247;BME280;31529;51.158;7.354;2023-05-17T02:40:47;98628.25;;;8.36;98.32
45247;BME280;31529;51.158;7.354;2023-05-17T02:41:19;98626.38;;;8.36;98.83
45247;BME280;31529;51.158;7.354;2023-05-17T02:41:50;98620.28;;;8.36;98.83
45247;BME280;31529;51.158;7.354;2023-05-17T02:42:21;98618.69;;;8.35;98.66
45247;BME280;31529;51.158;7.354;2023-05-17T02:42:52;98627.44;;;8.35;98.65
45247;BME280;31529;51.158;7.354;2023-05-17T02:43:23;98628.50;;;8.34;98.40
45247;BME280;31529;51.158;7.354;2023-05-17T02:43:54;98627.69;;;8.34;98.75
45247;BME280;31529;51.158;7.354;2023-05-17T02:44:25;98626.09;;;8.33;99.15
45247;BME280;31529;51.158;7.354;2023-05-17T02:44:56;98621.84;;;8.32;99.07
45247;BME280;31529;51.158;7.354;2023-05-17T02:45:28;98628.19;;;8.31;98.49
45247;BME280;31529;51.158;7.354;2023-05-17T02:46:00;98626.59;;;8.30;98.37
45247;BME280;31529;51.158;7.354;2023-05-17T02:46:31;98626.59;;;8.30;98.64
45247;BME280;31529;51.158;7.354;2023-05-17T02:47:02;98627.91;;;8.27;98.22
45247;BME280;31529;51.158;7.354;2023-05-17T02:47:33;98624.44;;;8.27;98.10
45247;BME280;31529;51.158;7.354;2023-05-17T02:48:04;98627.09;;;8.27;98.71
45247;BME280;31529;51.158;7.354;2023-05-17T02:48:36;98630.81;;;8.26;98.76
45247;BME280;31529;51.158;7.354;2023-05-17T02:49:07;98626.53;;;8.25;98.66
45247;BME280;31529;51.158;7.354;2023-05-17T02:49:38;98633.72;;;8.24;97.94
45247;BME280;31529;51.158;7.354;2023-05-17T02:50:09;98619.88;;;8.22;98.48
45247;BME280;31529;51.158;7.354;2023-05-17T02:50:41;98630.53;;;8.22;97.87
45247;BME280;31529;51.158;7.354;2023-05-17T02:51:12;98626.50;;;8.19;97.95
45247;BME280;31529;51.158;7.354;2023-05-17T02:51:44;98630.22;;;8.18;98.21
45247;BME280;31529;51.158;7.354;2023-05-17T02:52:15;98623.28;;;8.17;98.42
45247;BME280;31529;51.158;7.354;2023-05-17T02:52:46;98627.81;;;8.17;98.26
45247;BME280;31529;51.158;7.354;2023-05-17T02:53:17;98628.03;;;8.15;98.65
45247;BME280;31529;51.158;7.354;2023-05-17T02:53:48;98634.44;;;8.14;98.01
45247;BME280;31529;51.158;7.354;2023-05-17T02:54:19;98627.50;;;8.13;98.39
45247;BME280;31529;51.158;7.354;2023-05-17T02:54:50;98630.41;;;8.12;98.16
45247;BME280;31529;51.158;7.354;2023-05-17T02:55:21;98633.88;;;8.12;98.76
45247;BME280;31529;51.158;7.354;2023-05-17T02:55:53;98627.75;;;8.12;98.34
45247;BME280;31529;51.158;7.354;2023-05-17T02:56:27;98627.75;;;8.12;98.59
45247;BME280;31529;51.158;7.354;2023-05-17T02:56:58;98631.22;;;8.12;98.94
45247;BME280;31529;51.158;7.354;2023-05-17T02:57:29;98638.38;;;8.12;99.01
45247;BME280;31529;51.158;7.354;2023-05-17T02:58:00;98636.53;;;8.12;99.41
45247;BME280;31529;51.158;7.354;2023-05-17T02:58:31;98633.06;;;8.12;99.65
45247;BME280;31529;51.158;7.354;2023-05-17T02:59:03;98640.00;;;8.13;99.19
45247;BME280;31529;51.158;7.354;2023-05-17T02:59:34;98637.34;;;8.13;99.92
45247;BME280;31529;51.158;7.354;2023-05-17T03:00:05;98641.84;;;8.12;99.58
45247;BME280;31529;51.158;7.354;2023-05-17T03:00:37;98636.53;;;8.12;99.69
45247;BME280;31529;51.158;7.354;2023-05-17T03:01:09;98643.44;;;8.13;100.00
45247;BME280;31529;51.158;7.354;2023-05-17T03:01:40;98640.78;;;8.13;100.00
45247;BME280;31529;51.158;7.354;2023-05-17T03:02:12;98635.22;;;8.15;100.00
45247;BME280;31529;51.158;7.354;2023-05-17T03:02:43;98552.56;;;7.62;100.00
45247;BME280;31529;51.158;7.354;2023-05-17T03:03:14;98633.91;;;8.17;100.00
45247;BME280;31529;51.158;7.354;2023-05-17T03:03:45;98638.19;;;8.18;100.00
45247;BME280;31529;51.158;7.354;2023-05-17T03:04:16;98631.84;;;8.19;100.00
45247;BME280;31529;51.158;7.354;2023-05-17T03:04:49;98644.06;;;8.20;100.00
45247;BME280;31529;51.158;7.354;2023-05-17T03:05:21;98645.41;;;8.23;100.00
45247;BME280;31529;51.158;7.354;2023-05-17T03:05:52;98639.03;;;8.24;100.00
45247;BME280;31529;51.158;7.354;2023-05-17T03:06:23;98640.94;;;8.29;100.00
45247;BME280;31529;51.158;7.354;2023-05-17T03:06:54;98637.22;;;8.30;100.00